sensor_id;sensor_type;location;lat;lon;timestamp;pressure;altitude;pressure_sealevel;temperature;humidity
66945;BME280;53853;51.982;5.928;2023-04-19T00:00:59;102677.53;;;11.79;59.98
66945;BME280;53853;51.982;5.928;2023-04-19T00:03:29;102679.25;;;11.80;59.60
66945;BME280;53853;51.982;5.928;2023-04-19T00:06:01;102677.31;;;11.82;59.84
66945;BME280;53853;51.982;5.928;2023-04-19T00:08:34;102678.91;;;11.85;59.80
66945;BME280;53853;51.982;5.928;2023-04-19T00:11:04;102677.31;;;11.82;59.83
66945;BME280;53853;51.982;5.928;2023-04-19T00:13:34;102674.84;;;11.79;59.87
66945;BME280;53853;51.982;5.928;2023-04-19T00:16:05;102676.03;;;11.75;59.92
66945;BME280;53853;51.982;5.928;2023-04-19T00:18:35;102677.13;;;11.72;59.79
66945;BME280;53853;51.982;5.928;2023-04-19T00:21:08;102674.78;;;11.68;60.72
66945;BME280;53853;51.982;5.928;2023-04-19T00:23:38;102671.50;;;11.64;60.62
66945;BME280;53853;51.982;5.928;2023-04-19T00:26:08;102667.34;;;11.60;60.78
66945;BME280;53853;51.982;5.928;2023-04-19T00:28:42;102664.88;;;11.57;60.77
66945;BME280;53853;51.982;5.928;2023-04-19T00:31:12;102658.94;;;11.53;60.79
66945;BME280;53853;51.982;5.928;2023-04-19T00:33:42;102664.59;;;11.49;61.10
66945;BME280;53853;51.982;5.928;2023-04-19T00:36:14;102664.19;;;11.42;61.50
66945;BME280;53853;51.982;5.928;2023-04-19T00:38:47;102660.25;;;11.35;61.59
66945;BME280;53853;51.982;5.928;2023-04-19T00:41:16;102665.06;;;11.30;61.84
66945;BME280;53853;51.982;5.928;2023-04-19T00:43:47;102657.28;;;11.27;61.84
66945;BME280;53853;51.982;5.928;2023-04-19T00:46:17;102663.78;;;11.22;61.94
66945;BME280;53853;51.982;5.928;2023-04-19T00:48:47;102652.47;;;11.19;61.97
66945;BME280;53853;51.982;5.928;2023-04-19T00:51:20;102653.53;;;11.16;61.96
66945;BME280;53853;51.982;5.928;2023-04-19T00:53:51;102647.34;;;11.16;62.34
66945;BME280;53853;51.982;5.928;2023-04-19T00:56:21;102642.88;;;11.16;62.81
66945;BME280;53853;51.982;5.928;2023-04-19T00:58:53;102643.84;;;11.15;62.92
66945;BME280;53853;51.982;5.928;2023-04-19T01:01:23;102644.59;;;11.17;62.71
66945;BME280;53853;51.982;5.928;2023-04-19T01:03:53;102645.44;;;11.18;62.70
66945;BME280;53853;51.982;5.928;2023-04-19T01:06:26;102646.31;;;11.18;62.56
66945;BME280;53853;51.982;5.928;2023-04-19T01:08:56;102640.97;;;11.18;62.80
66945;BME280;53853;51.982;5.928;2023-04-19T01:11:26;102650.75;;;11.18;62.81
66945;BME280;53853;51.982;5.928;2023-04-19T01:13:56;102650.97;;;11.15;62.98
66945;BME280;53853;51.982;5.928;2023-04-19T01:16:27;102640.53;;;11.12;63.21
66945;BME280;53853;51.982;5.928;2023-04-19T01:18:56;102649.41;;;11.12;63.29
66945;BME280;53853;51.982;5.928;2023-04-19T01:21:29;102638.84;;;11.11;63.17
66945;BME280;53853;51.982;5.928;2023-04-19T01:24:01;102638.09;;;11.09;63.46
66945;BME280;53853;51.982;5.928;2023-04-19T01:26:31;102639.91;;;11.08;63.44
66945;BME280;53853;51.982;5.928;2023-04-19T01:29:02;102638.44;;;11.04;63.54
66945;BME280;53853;51.982;5.928;2023-04-19T01:31:32;102641.41;;;10.99;63.60
66945;BME280;53853;51.982;5.928;2023-04-19T01:34:04;102638.97;;;10.96;63.34
66945;BME280;53853;51.982;5.928;2023-04-19T01:36:34;102630.31;;;10.93;63.70
66945;BME280;53853;51.982;5.928;2023-04-19T01:39:06;102637.56;;;10.91;63.70
66945;BME280;53853;51.982;5.928;2023-04-19T01:41:39;102641.44;;;10.86;63.82
66945;BME280;53853;51.982;5.928;2023-04-19T01:44:10;102650.50;;;10.84;63.48
66945;BME280;53853;51.982;5.928;2023-04-19T01:46:40;102634.81;;;10.79;63.56
66945;BME280;53853;51.982;5.928;2023-04-19T01:49:09;102646.41;;;10.78;64.08
66945;BME280;53853;51.982;5.928;2023-04-19T01:51:39;102642.16;;;10.76;63.88
66945;BME280;53853;51.982;5.928;2023-04-19T01:54:12;102642.38;;;10.73;63.95
66945;BME280;53853;51.982;5.928;2023-04-19T01:56:42;102638.31;;;10.67;64.36
66945;BME280;53853;51.982;5.928;2023-04-19T01:59:11;102637.56;;;10.65;64.40
66945;BME280;53853;51.982;5.928;2023-04-19T02:01:41;102635.00;;;10.63;64.65
66945;BME280;53853;51.982;5.928;2023-04-19T02:04:11;102640.44;;;10.62;64.45
66945;BME280;53853;51.982;5.928;2023-04-19T02:06:41;102632.66;;;10.59;64.43
66945;BME280;53853;51.982;5.928;2023-04-19T02:09:13;102637.25;;;10.57;64.61
66945;BME280;53853;51.982;5.928;2023-04-19T02:11:46;102629.47;;;10.54;64.74
66945;BME280;53853;51.982;5.928;2023-04-19T02:14:15;102626.06;;;10.51;64.75
66945;BME280;53853;51.982;5.928;2023-04-19T02:16:45;102631.50;;;10.50;64.71
66945;BME280;53853;51.982;5.928;2023-04-19T02:19:15;102629.69;;;10.50;65.03
66945;BME280;53853;51.982;5.928;2023-04-19T02:21:45;102629.78;;;10.49;64.82
66945;BME280;53853;51.982;5.928;2023-04-19T02:24:18;102635.00;;;10.50;64.88
66945;BME280;53853;51.982;5.928;2023-04-19T02:26:47;102632.13;;;10.54;65.00
66945;BME280;53853;51.982;5.928;2023-04-19T02:29:17;102642.38;;;10.60;64.64
66945;BME280;53853;51.982;5.928;2023-04-19T02:31:47;102631.41;;;10.64;64.78
66945;BME280;53853;51.982;5.928;2023-04-19T02:34:17;102640.78;;;10.70;65.02
66945;BME280;53853;51.982;5.928;2023-04-19T02:36:47;102630.53;;;10.77;64.96
66945;BME280;53853;51.982;5.928;2023-04-19T02:39:19;102637.38;;;10.81;65.10
66945;BME280;53853;51.982;5.928;2023-04-19T02:41:49;102635.44;;;10.83;64.96
66945;BME280;53853;51.982;5.928;2023-04-19T02:44:19;102639.81;;;10.84;64.65
66945;BME280;53853;51.982;5.928;2023-04-19T02:46:49;102636.19;;;10.85;64.72
66945;BME280;53853;51.982;5.928;2023-04-19T02:49:19;102631.50;;;10.88;64.47
66945;BME280;53853;51.982;5.928;2023-04-19T02:51:50;102635.88;;;10.90;64.45
66945;BME280;53853;51.982;5.928;2023-04-19T02:54:23;102629.66;;;10.89;64.32
66945;BME280;53853;51.982;5.928;2023-04-19T02:56:53;102637.56;;;10.91;64.46
66945;BME280;53853;51.982;5.928;2023-04-19T02:59:23;102623.28;;;10.92;64.28
66945;BME280;53853;51.982;5.928;2023-04-19T03:01:53;102630.19;;;10.94;64.17
66945;BME280;53853;51.982;5.928;2023-04-19T03:04:24;102634.47;;;10.97;64.17
66945;BME280;53853;51.982;5.928;2023-04-19T03:06:55;102644.19;;;10.98;64.09
66945;BME280;53853;51.982;5.928;2023-04-19T03:09:27;102635.97;;;11.01;64.13
66945;BME280;53853;51.982;5.928;2023-04-19T03:11:58;102635.75;;;11.04;63.87
66945;BME280;53853;51.982;5.928;2023-04-19T03:14:28;102637.34;;;11.06;63.73
66945;BME280;53853;51.982;5.928;2023-04-19T03:16:59;102629.22;;;11.08;63.78
66945;BME280;53853;51.982;5.928;2023-04-19T03:19:30;102631.78;;;11.10;63.60
66945;BME280;53853;51.982;5.928;2023-04-19T03:22:00;102637.97;;;11.10;63.58
66945;BME280;53853;51.982;5.928;2023-04-19T03:24:34;102634.25;;;11.13;63.40
66945;BME280;53853;51.982;5.928;2023-04-19T03:27:16;102629.00;;;11.11;63.56
66945;BME280;53853;51.982;5.928;2023-04-19T03:29:49;102631.56;;;11.13;63.40
66945;BME280;53853;51.982;5.928;2023-04-19T03:32:19;102627.06;;;11.13;63.08
66945;BME280;53853;51.982;5.928;2023-04-19T03:34:49;102629.75;;;11.13;63.00
66945;BME280;53853;51.982;5.928;2023-04-19T03:37:19;102631.69;;;11.11;62.88
66945;BME280;53853;51.982;5.928;2023-04-19T03:39:51;102624.88;;;11.07;62.88
66945;BME280;53853;51.982;5.928;2023-04-19T03:42:27;102622.31;;;11.05;62.75
66945;BME280;53853;51.982;5.928;2023-04-19T03:45:20;102622.41;;;11.04;62.64
66945;BME280;53853;51.982;5.928;2023-04-19T03:47:51;102638.44;;;11.04;62.80
66945;BME280;53853;51.982;5.928;2023-04-19T03:50:21;102635.00;;;11.02;62.59
66945;BME280;53853;51.982;5.928;2023-04-19T03:52:53;102640.44;;;11.00;62.57
66945;BME280;53853;51.982;5.928;2023-04-19T03:55:26;102635.22;;;10.99;62.47
66945;BME280;53853;51.982;5.928;2023-04-19T03:57:56;102626.47;;;10.97;62.32
66945;BME280;53853;51.982;5.928;2023-04-19T04:00:36;102630.53;;;10.90;62.31
66945;BME280;53853;51.982;5.928;2023-04-19T04:03:06;102638.75;;;10.86;62.32
66945;BME280;53853;51.982;5.928;2023-04-19T04:05:36;102634.59;;;10.82;61.97
66945;BME280;53853;51.982;5.928;2023-04-19T04:08:06;102634.06;;;10.77;62.15
66945;BME280;53853;51.982;5.928;2023-04-19T04:10:38;102637.16;;;10.71;62.00
66945;BME280;53853;51.982;5.928;2023-04-19T04:13:08;102634.16;;;10.63;61.71
66945;BME280;53853;51.982;5.928;2023-04-19T04:15:46;102631.06;;;10.56;61.69
66945;BME280;53853;51.982;5.928;2023-04-19T04:18:17;102640.34;;;10.50;61.85
66945;BME280;53853;51.982;5.928;2023-04-19T04:20:47;102629.16;;;10.45;61.74
66945;BME280;53853;51.982;5.928;2023-04-19T04:23:18;102635.63;;;10.41;61.76
66945;BME280;53853;51.982;5.928;2023-04-19T04:25:58;102625.38;;;10.35;61.95
66945;BME280;53853;51.982;5.928;2023-04-19T04:28:45;102638.25;;;10.28;61.92
66945;BME280;53853;51.982;5.928;2023-04-19T04:31:15;102625.22;;;10.24;61.93
66945;BME280;53853;51.982;5.928;2023-04-19T04:33:47;102629.81;;;10.22;61.75
66945;BME280;53853;51.982;5.928;2023-04-19T04:36:20;102631.06;;;10.16;61.84
66945;BME280;53853;51.982;5.928;2023-04-19T04:38:52;102628.50;;;10.14;61.74
66945;BME280;53853;51.982;5.928;2023-04-19T04:41:25;102638.44;;;10.12;61.72
66945;BME280;53853;51.982;5.928;2023-04-19T04:43:57;102640.56;;;10.07;61.74
66945;BME280;53853;51.982;5.928;2023-04-19T04:46:30;102635.44;;;10.04;61.87
66945;BME280;53853;51.982;5.928;2023-04-19T04:49:01;102631.25;;;10.00;62.05
66945;BME280;53853;51.982;5.928;2023-04-19T04:51:30;102633.16;;;9.98;61.73
66945;BME280;53853;51.982;5.928;2023-04-19T04:54:00;102627.19;;;9.94;61.90
66945;BME280;53853;51.982;5.928;2023-04-19T04:56:33;102631.84;;;9.91;61.77
66945;BME280;53853;51.982;5.928;2023-04-19T04:59:03;102634.72;;;9.88;61.81
66945;BME280;53853;51.982;5.928;2023-04-19T05:01:37;102632.34;;;9.83;61.97
66945;BME280;53853;51.982;5.928;2023-04-19T05:04:07;102636.28;;;9.77;62.33
66945;BME280;53853;51.982;5.928;2023-04-19T05:06:37;102640.88;;;9.75;62.48
66945;BME280;53853;51.982;5.928;2023-04-19T05:09:09;102648.94;;;9.74;62.53
66945;BME280;53853;51.982;5.928;2023-04-19T05:11:42;102649.06;;;9.72;62.56
66945;BME280;53853;51.982;5.928;2023-04-19T05:14:12;102650.94;;;9.70;62.42
66945;BME280;53853;51.982;5.928;2023-04-19T05:16:42;102646.50;;;9.71;62.21
66945;BME280;53853;51.982;5.928;2023-04-19T05:19:13;102649.25;;;9.69;62.09
66945;BME280;53853;51.982;5.928;2023-04-19T05:21:48;102647.34;;;9.71;61.88
66945;BME280;53853;51.982;5.928;2023-04-19T05:24:18;102649.16;;;9.71;61.70
66945;BME280;53853;51.982;5.928;2023-04-19T05:26:51;102649.25;;;9.69;61.26
66945;BME280;53853;51.982;5.928;2023-04-19T05:29:21;102644.66;;;9.71;61.20
66945;BME280;53853;51.982;5.928;2023-04-19T05:31:54;102650.84;;;9.72;60.91
66945;BME280;53853;51.982;5.928;2023-04-19T05:34:29;102654.38;;;9.72;60.40
66945;BME280;53853;51.982;5.928;2023-04-19T05:37:00;102659.69;;;9.72;60.27
66945;BME280;53853;51.982;5.928;2023-04-19T05:39:31;102657.78;;;9.74;60.33
66945;BME280;53853;51.982;5.928;2023-04-19T05:42:03;102660.44;;;9.74;60.37
66945;BME280;53853;51.982;5.928;2023-04-19T05:44:33;102662.25;;;9.74;59.79
66945;BME280;53853;51.982;5.928;2023-04-19T05:47:04;102656.06;;;9.73;59.50
66945;BME280;53853;51.982;5.928;2023-04-19T05:50:03;102658.63;;;9.75;59.42
66945;BME280;53853;51.982;5.928;2023-04-19T05:52:40;102648.63;;;9.78;59.12
66945;BME280;53853;51.982;5.928;2023-04-19T05:55:10;102654.72;;;9.81;58.56
66945;BME280;53853;51.982;5.928;2023-04-19T05:57:46;102652.72;;;9.84;58.04
66945;BME280;53853;51.982;5.928;2023-04-19T06:00:16;102650.69;;;9.88;58.00
66945;BME280;53853;51.982;5.928;2023-04-19T06:02:56;102658.28;;;9.94;57.07
66945;BME280;53853;51.982;5.928;2023-04-19T06:05:27;102653.59;;;9.97;56.62
66945;BME280;53853;51.982;5.928;2023-04-19T06:07:57;102655.75;;;10.05;54.97
66945;BME280;53853;51.982;5.928;2023-04-19T06:10:26;102651.94;;;10.09;55.43
66945;BME280;53853;51.982;5.928;2023-04-19T06:12:59;102656.88;;;10.15;54.19
66945;BME280;53853;51.982;5.928;2023-04-19T06:15:29;102654.75;;;10.21;54.46
66945;BME280;53853;51.982;5.928;2023-04-19T06:18:00;102664.78;;;10.30;54.61
66945;BME280;53853;51.982;5.928;2023-04-19T06:20:31;102663.34;;;10.39;53.08
66945;BME280;53853;51.982;5.928;2023-04-19T06:23:01;102657.38;;;10.48;53.41
66945;BME280;53853;51.982;5.928;2023-04-19T06:25:31;102664.88;;;10.56;53.19
66945;BME280;53853;51.982;5.928;2023-04-19T06:28:04;102654.63;;;10.62;51.27
66945;BME280;53853;51.982;5.928;2023-04-19T06:30:34;102662.31;;;10.67;51.29
66945;BME280;53853;51.982;5.928;2023-04-19T06:33:04;102666.38;;;10.73;50.12
66945;BME280;53853;51.982;5.928;2023-04-19T06:35:34;102664.56;;;10.73;50.23
66945;BME280;53853;51.982;5.928;2023-04-19T06:38:04;102664.44;;;10.75;49.51
66945;BME280;53853;51.982;5.928;2023-04-19T06:40:33;102665.41;;;10.74;49.82
66945;BME280;53853;51.982;5.928;2023-04-19T06:43:06;102660.84;;;10.76;49.23
66945;BME280;53853;51.982;5.928;2023-04-19T06:45:36;102667.75;;;10.78;49.94
66945;BME280;53853;51.982;5.928;2023-04-19T06:48:06;102671.19;;;10.80;49.77
66945;BME280;53853;51.982;5.928;2023-04-19T06:50:35;102665.66;;;10.83;48.71
66945;BME280;53853;51.982;5.928;2023-04-19T06:53:05;102659.53;;;10.81;47.66
66945;BME280;53853;51.982;5.928;2023-04-19T06:55:35;102670.22;;;10.81;48.17
66945;BME280;53853;51.982;5.928;2023-04-19T06:58:08;102677.06;;;10.85;47.70
66945;BME280;53853;51.982;5.928;2023-04-19T07:00:38;102670.66;;;10.88;47.15
66945;BME280;53853;51.982;5.928;2023-04-19T07:03:08;102676.00;;;10.88;45.30
66945;BME280;53853;51.982;5.928;2023-04-19T07:05:37;102665.31;;;10.88;46.28
66945;BME280;53853;51.982;5.928;2023-04-19T07:08:07;102680.34;;;10.89;46.26
66945;BME280;53853;51.982;5.928;2023-04-19T07:10:37;102680.03;;;10.94;45.22
66945;BME280;53853;51.982;5.928;2023-04-19T07:13:11;102677.38;;;10.94;45.56
66945;BME280;53853;51.982;5.928;2023-04-19T07:15:41;102677.88;;;10.99;45.47
66945;BME280;53853;51.982;5.928;2023-04-19T07:18:11;102687.28;;;11.04;45.58
66945;BME280;53853;51.982;5.928;2023-04-19T07:20:42;102672.56;;;10.99;43.79
66945;BME280;53853;51.982;5.928;2023-04-19T07:23:14;102683.13;;;11.00;44.25
66945;BME280;53853;51.982;5.928;2023-04-19T07:25:45;102681.53;;;10.98;43.10
66945;BME280;53853;51.982;5.928;2023-04-19T07:28:17;102677.25;;;10.95;43.75
66945;BME280;53853;51.982;5.928;2023-04-19T07:30:47;102675.31;;;10.97;44.37
66945;BME280;53853;51.982;5.928;2023-04-19T07:33:17;102675.13;;;11.00;43.99
66945;BME280;53853;51.982;5.928;2023-04-19T07:35:47;102672.56;;;10.99;43.24
66945;BME280;53853;51.982;5.928;2023-04-19T07:38:17;102681.44;;;10.99;44.05
66945;BME280;53853;51.982;5.928;2023-04-19T07:40:47;102675.31;;;10.97;43.63
66945;BME280;53853;51.982;5.928;2023-04-19T07:43:19;102677.78;;;11.00;43.35
66945;BME280;53853;51.982;5.928;2023-04-19T07:45:49;102683.00;;;11.02;43.66
66945;BME280;53853;51.982;5.928;2023-04-19T07:48:19;102681.13;;;11.04;42.65
66945;BME280;53853;51.982;5.928;2023-04-19T07:50:49;102691.22;;;10.99;43.00
66945;BME280;53853;51.982;5.928;2023-04-19T07:53:19;102684.72;;;11.03;43.84
66945;BME280;53853;51.982;5.928;2023-04-19T07:55:49;102689.34;;;11.01;43.16
66945;BME280;53853;51.982;5.928;2023-04-19T07:58:21;102690.06;;;11.03;43.33
66945;BME280;53853;51.982;5.928;2023-04-19T08:00:52;102689.84;;;11.06;43.24
66945;BME280;53853;51.982;5.928;2023-04-19T08:03:22;102679.06;;;11.08;43.43
66945;BME280;53853;51.982;5.928;2023-04-19T08:05:52;102678.75;;;11.12;43.14
66945;BME280;53853;51.982;5.928;2023-04-19T08:08:22;102682.06;;;11.16;43.19
66945;BME280;53853;51.982;5.928;2023-04-19T08:10:53;102679.28;;;11.17;42.92
66945;BME280;53853;51.982;5.928;2023-04-19T08:13:25;102681.63;;;11.22;42.29
66945;BME280;53853;51.982;5.928;2023-04-19T08:15:55;102675.84;;;11.28;41.88
66945;BME280;53853;51.982;5.928;2023-04-19T08:18:25;102673.59;;;11.35;42.61
66945;BME280;53853;51.982;5.928;2023-04-19T08:20:55;102681.28;;;11.39;42.48
66945;BME280;53853;51.982;5.928;2023-04-19T08:23:25;102672.09;;;11.44;41.96
66945;BME280;53853;51.982;5.928;2023-04-19T08:25:55;102678.28;;;11.44;41.69
66945;BME280;53853;51.982;5.928;2023-04-19T08:28:27;102669.94;;;11.49;41.24
66945;BME280;53853;51.982;5.928;2023-04-19T08:30:58;102666.16;;;11.51;41.21
66945;BME280;53853;51.982;5.928;2023-04-19T08:33:28;102665.94;;;11.54;41.33
66945;BME280;53853;51.982;5.928;2023-04-19T08:35:58;102663.94;;;11.58;41.23
66945;BME280;53853;51.982;5.928;2023-04-19T08:38:28;102667.34;;;11.60;40.73
66945;BME280;53853;51.982;5.928;2023-04-19T08:40:58;102665.41;;;11.62;40.50
66945;BME280;53853;51.982;5.928;2023-04-19T08:43:35;102665.28;;;11.64;40.95
66945;BME280;53853;51.982;5.928;2023-04-19T08:46:06;102679.91;;;11.71;40.76
66945;BME280;53853;51.982;5.928;2023-04-19T08:48:36;102679.25;;;11.67;38.61
66945;BME280;53853;51.982;5.928;2023-04-19T08:51:07;102669.56;;;11.66;39.14
66945;BME280;53853;51.982;5.928;2023-04-19T08:53:39;102665.69;;;11.70;39.52
66945;BME280;53853;51.982;5.928;2023-04-19T08:56:10;102683.09;;;11.76;39.37
66945;BME280;53853;51.982;5.928;2023-04-19T08:58:42;102673.69;;;11.70;38.13
66945;BME280;53853;51.982;5.928;2023-04-19T09:01:12;102669.69;;;11.65;38.75
66945;BME280;53853;51.982;5.928;2023-04-19T09:03:43;102673.81;;;11.69;39.13
66945;BME280;53853;51.982;5.928;2023-04-19T09:06:14;102674.34;;;11.74;38.42
66945;BME280;53853;51.982;5.928;2023-04-19T09:08:44;102666.34;;;11.74;38.88
66945;BME280;53853;51.982;5.928;2023-04-19T09:11:14;102659.28;;;11.73;38.19
66945;BME280;53853;51.982;5.928;2023-04-19T09:13:46;102660.22;;;11.72;38.97
66945;BME280;53853;51.982;5.928;2023-04-19T09:16:25;102654.66;;;11.75;39.17
66945;BME280;53853;51.982;5.928;2023-04-19T09:18:56;102665.56;;;11.72;38.42
66945;BME280;53853;51.982;5.928;2023-04-19T09:21:27;102665.78;;;11.69;38.01
66945;BME280;53853;51.982;5.928;2023-04-19T09:23:58;102662.28;;;11.68;39.13
66945;BME280;53853;51.982;5.928;2023-04-19T09:26:29;102660.88;;;11.75;39.34
66945;BME280;53853;51.982;5.928;2023-04-19T09:29:02;102667.06;;;11.76;39.34
66945;BME280;53853;51.982;5.928;2023-04-19T09:31:34;102657.13;;;11.78;38.99
66945;BME280;53853;51.982;5.928;2023-04-19T09:34:14;102656.50;;;11.74;39.55
66945;BME280;53853;51.982;5.928;2023-04-19T09:36:44;102658.59;;;11.82;40.09
66945;BME280;53853;51.982;5.928;2023-04-19T09:39:28;102656.97;;;11.92;40.45
66945;BME280;53853;51.982;5.928;2023-04-19T09:41:58;102655.69;;;11.98;40.23
66945;BME280;53853;51.982;5.928;2023-04-19T09:44:31;102649.75;;;12.06;40.30
66945;BME280;53853;51.982;5.928;2023-04-19T09:47:02;102643.66;;;12.04;40.00
66945;BME280;53853;51.982;5.928;2023-04-19T09:50:04;102660.84;;;12.12;40.44
66945;BME280;53853;51.982;5.928;2023-04-19T09:52:34;102639.81;;;12.08;39.57
66945;BME280;53853;51.982;5.928;2023-04-19T09:55:05;102641.91;;;12.16;39.84
66945;BME280;53853;51.982;5.928;2023-04-19T09:57:36;102646.28;;;12.17;38.75
66945;BME280;53853;51.982;5.928;2023-04-19T10:00:10;102636.94;;;12.22;39.08
66945;BME280;53853;51.982;5.928;2023-04-19T10:02:41;102641.22;;;12.25;38.67
66945;BME280;53853;51.982;5.928;2023-04-19T10:05:15;102636.47;;;12.28;38.21
66945;BME280;53853;51.982;5.928;2023-04-19T10:07:45;102632.84;;;12.29;38.44
66945;BME280;53853;51.982;5.928;2023-04-19T10:10:16;102626.38;;;12.32;38.34
66945;BME280;53853;51.982;5.928;2023-04-19T10:12:50;102616.09;;;12.39;38.69
66945;BME280;53853;51.982;5.928;2023-04-19T10:15:24;102622.44;;;12.49;39.25
66945;BME280;53853;51.982;5.928;2023-04-19T10:17:54;102625.97;;;12.61;39.18
66945;BME280;53853;51.982;5.928;2023-04-19T10:20:29;102621.72;;;12.69;37.87
66945;BME280;53853;51.982;5.928;2023-04-19T10:23:02;102623.69;;;12.67;37.00
66945;BME280;53853;51.982;5.928;2023-04-19T10:25:36;102615.66;;;12.67;37.35
66945;BME280;53853;51.982;5.928;2023-04-19T10:28:06;102612.88;;;12.69;36.74
66945;BME280;53853;51.982;5.928;2023-04-19T10:30:52;102619.78;;;12.72;37.29
66945;BME280;53853;51.982;5.928;2023-04-19T10:33:26;102619.66;;;12.73;36.82
66945;BME280;53853;51.982;5.928;2023-04-19T10:35:58;102614.19;;;12.75;36.55
66945;BME280;53853;51.982;5.928;2023-04-19T10:38:38;102605.56;;;12.82;36.75
66945;BME280;53853;51.982;5.928;2023-04-19T10:41:09;102616.50;;;12.79;35.83
66945;BME280;53853;51.982;5.928;2023-04-19T10:43:45;102604.72;;;12.82;35.91
66945;BME280;53853;51.982;5.928;2023-04-19T10:46:38;102608.59;;;12.89;36.03
66945;BME280;53853;51.982;5.928;2023-04-19T10:49:08;102601.81;;;12.96;36.58
66945;BME280;53853;51.982;5.928;2023-04-19T10:51:40;102597.53;;;13.05;37.16
66945;BME280;53853;51.982;5.928;2023-04-19T10:54:28;102597.16;;;13.10;36.70
66945;BME280;53853;51.982;5.928;2023-04-19T10:56:59;102587.19;;;13.12;35.29
66945;BME280;53853;51.982;5.928;2023-04-19T10:59:31;102595.94;;;13.14;35.59
66945;BME280;53853;51.982;5.928;2023-04-19T11:02:05;102592.03;;;13.18;35.16
66945;BME280;53853;51.982;5.928;2023-04-19T11:05:03;102583.75;;;13.21;33.96
66945;BME280;53853;51.982;5.928;2023-04-19T11:07:38;102580.00;;;13.23;34.28
66945;BME280;53853;51.982;5.928;2023-04-19T11:10:10;102571.84;;;13.25;33.17
66945;BME280;53853;51.982;5.928;2023-04-19T11:12:43;102582.41;;;13.27;32.42
66945;BME280;53853;51.982;5.928;2023-04-19T11:15:13;102566.72;;;13.33;31.97
66945;BME280;53853;51.982;5.928;2023-04-19T11:17:49;102584.97;;;13.39;30.65
66945;BME280;53853;51.982;5.928;2023-04-19T11:20:23;102565.00;;;13.44;29.37
66945;BME280;53853;51.982;5.928;2023-04-19T11:22:53;102552.81;;;13.51;30.99
66945;BME280;53853;51.982;5.928;2023-04-19T11:25:26;102553.25;;;13.56;30.26
66945;BME280;53853;51.982;5.928;2023-04-19T11:27:57;102549.50;;;13.58;29.76
66945;BME280;53853;51.982;5.928;2023-04-19T11:30:29;102540.34;;;13.61;28.45
66945;BME280;53853;51.982;5.928;2023-04-19T11:33:02;102545.47;;;13.64;29.05
66945;BME280;53853;51.982;5.928;2023-04-19T11:35:32;102537.88;;;13.69;28.66
66945;BME280;53853;51.982;5.928;2023-04-19T11:38:02;102526.91;;;13.72;29.17
66945;BME280;53853;51.982;5.928;2023-04-19T11:40:32;102525.91;;;13.73;29.62
66945;BME280;53853;51.982;5.928;2023-04-19T11:43:03;102515.56;;;13.80;30.58
66945;BME280;53853;51.982;5.928;2023-04-19T11:45:35;102516.00;;;13.85;30.44
66945;BME280;53853;51.982;5.928;2023-04-19T11:48:13;102513.91;;;13.89;29.58
66945;BME280;53853;51.982;5.928;2023-04-19T11:50:44;102510.97;;;13.92;30.34
66945;BME280;53853;51.982;5.928;2023-04-19T11:53:17;102503.38;;;13.97;29.78
66945;BME280;53853;51.982;5.928;2023-04-19T11:55:50;102515.16;;;14.06;29.72
66945;BME280;53853;51.982;5.928;2023-04-19T11:58:27;102507.69;;;14.09;29.36
66945;BME280;53853;51.982;5.928;2023-04-19T12:01:03;102512.78;;;14.12;29.39
66945;BME280;53853;51.982;5.928;2023-04-19T12:03:44;102507.88;;;14.18;29.07
66945;BME280;53853;51.982;5.928;2023-04-19T12:06:15;102494.47;;;14.18;28.76
66945;BME280;53853;51.982;5.928;2023-04-19T12:08:47;102485.19;;;14.22;29.27
66945;BME280;53853;51.982;5.928;2023-04-19T12:11:18;102489.19;;;14.27;29.95
66945;BME280;53853;51.982;5.928;2023-04-19T12:14:07;102486.53;;;14.37;29.24
66945;BME280;53853;51.982;5.928;2023-04-19T12:16:37;102486.66;;;14.36;28.53
66945;BME280;53853;51.982;5.928;2023-04-19T12:19:14;102489.47;;;14.34;28.19
66945;BME280;53853;51.982;5.928;2023-04-19T12:21:44;102486.06;;;14.32;28.88
66945;BME280;53853;51.982;5.928;2023-04-19T12:24:15;102482.16;;;14.36;29.00
66945;BME280;53853;51.982;5.928;2023-04-19T12:26:53;102478.78;;;14.44;28.40
66945;BME280;53853;51.982;5.928;2023-04-19T12:29:23;102486.44;;;14.48;29.01
66945;BME280;53853;51.982;5.928;2023-04-19T12:31:53;102484.91;;;14.56;29.18
66945;BME280;53853;51.982;5.928;2023-04-19T12:34:25;102480.03;;;14.61;28.68
66945;BME280;53853;51.982;5.928;2023-04-19T12:36:55;102469.28;;;14.61;29.38
66945;BME280;53853;51.982;5.928;2023-04-19T12:39:25;102470.97;;;14.62;28.50
66945;BME280;53853;51.982;5.928;2023-04-19T12:41:56;102465.59;;;14.62;29.70
66945;BME280;53853;51.982;5.928;2023-04-19T12:44:25;102464.78;;;14.71;30.15
66945;BME280;53853;51.982;5.928;2023-04-19T12:46:55;102457.16;;;14.76;30.11
66945;BME280;53853;51.982;5.928;2023-04-19T12:49:27;102455.06;;;14.80;29.79
66945;BME280;53853;51.982;5.928;2023-04-19T12:51:57;102452.97;;;14.83;30.07
66945;BME280;53853;51.982;5.928;2023-04-19T12:54:27;102456.22;;;14.87;27.82
66945;BME280;53853;51.982;5.928;2023-04-19T12:56:57;102452.69;;;14.87;28.90
66945;BME280;53853;51.982;5.928;2023-04-19T12:59:27;102451.69;;;14.88;29.12
66945;BME280;53853;51.982;5.928;2023-04-19T13:01:57;102445.34;;;14.89;29.50
66945;BME280;53853;51.982;5.928;2023-04-19T13:04:29;102452.53;;;14.88;28.63
66945;BME280;53853;51.982;5.928;2023-04-19T13:06:59;102442.22;;;14.83;28.33
66945;BME280;53853;51.982;5.928;2023-04-19T13:09:29;102417.38;;;14.81;28.14
66945;BME280;53853;51.982;5.928;2023-04-19T13:11:59;102424.97;;;14.76;27.29
66945;BME280;53853;51.982;5.928;2023-04-19T13:14:29;102418.75;;;14.76;28.22